createdAt,value
2023-03-14T00:01:21.438Z,4.40
2023-03-14T00:06:19.431Z,4.25
2023-03-14T00:08:48.440Z,4.05
2023-03-14T00:11:19.676Z,4.25
2023-03-14T00:13:54.091Z,4.12
2023-03-14T00:16:22.816Z,4.32
2023-03-14T00:18:50.993Z,3.97
2023-03-14T00:21:19.084Z,4.68
2023-03-14T00:23:47.418Z,4.35
2023-03-14T00:26:18.363Z,4.28
2023-03-14T00:28:46.742Z,4.40
2023-03-14T00:31:16.665Z,4.18
2023-03-14T00:33:45.934Z,4.00
2023-03-14T00:36:16.804Z,4.20
2023-03-14T00:38:48.223Z,4.03
2023-03-14T00:41:19.605Z,3.97
2023-03-14T00:43:48.537Z,4.35
2023-03-14T00:46:16.946Z,4.30
2023-03-14T00:48:48.431Z,4.03
2023-03-14T00:51:16.691Z,3.78
2023-03-14T00:53:45.319Z,4.35
2023-03-14T00:56:14.310Z,4.35
2023-03-14T00:58:42.452Z,3.87
2023-03-14T01:01:19.893Z,3.90
2023-03-14T01:03:48.782Z,4.07
2023-03-14T01:06:20.192Z,3.60
2023-03-14T01:11:25.416Z,3.90
2023-03-14T01:13:54.310Z,4.00
2023-03-14T01:16:24.471Z,3.97
2023-03-14T01:18:52.557Z,3.62
2023-03-14T01:21:26.763Z,4.12
2023-03-14T01:23:57.346Z,4.18
2023-03-14T01:26:28.844Z,3.57
2023-03-14T01:31:27.498Z,3.75
2023-03-14T01:33:55.743Z,3.55
2023-03-14T01:36:24.006Z,3.75
2023-03-14T01:38:52.793Z,4.00
2023-03-14T01:41:24.761Z,3.75
2023-03-14T01:43:54.110Z,3.42
2023-03-14T01:46:24.989Z,4.32
2023-03-14T01:49:15.306Z,3.33
2023-03-14T01:51:50.706Z,3.67
2023-03-14T01:54:21.524Z,3.87
2023-03-14T01:56:56.882Z,3.65
2023-03-14T01:59:25.854Z,3.53
2023-03-14T02:01:56.766Z,3.55
2023-03-14T02:04:28.330Z,3.67
2023-03-14T02:07:31.342Z,3.25
2023-03-14T02:10:03.700Z,3.90
2023-03-14T02:12:33.609Z,3.28
2023-03-14T02:15:05.670Z,3.30
2023-03-14T02:17:36.512Z,3.67
2023-03-14T02:20:21.173Z,3.97
2023-03-14T02:22:53.582Z,3.70
2023-03-14T02:25:36.894Z,3.08
2023-03-14T02:28:04.964Z,4.00
2023-03-14T02:30:34.306Z,3.85
2023-03-14T02:33:09.555Z,3.28
2023-03-14T02:35:57.931Z,3.17
2023-03-14T02:38:37.122Z,2.80
2023-03-14T02:41:06.423Z,3.22
2023-03-14T02:43:34.889Z,3.25
2023-03-14T02:46:06.481Z,3.47
2023-03-14T02:48:40.217Z,3.08
2023-03-14T02:51:09.176Z,3.20
2023-03-14T02:53:39.265Z,3.20
2023-03-14T02:56:08.842Z,3.30
2023-03-14T02:58:37.753Z,2.90
2023-03-14T03:01:06.984Z,3.20
2023-03-14T03:03:35.079Z,2.95
2023-03-14T03:06:03.662Z,3.10
2023-03-14T03:08:32.496Z,3.08
2023-03-14T03:11:01.170Z,3.33
2023-03-14T03:13:29.600Z,3.22
2023-03-14T03:15:58.095Z,3.40
2023-03-14T03:18:26.007Z,3.12
2023-03-14T03:20:53.944Z,2.75
2023-03-14T03:23:23.878Z,3.25
2023-03-14T03:25:52.478Z,3.12
2023-03-14T03:28:21.247Z,3.00
2023-03-14T03:30:50.671Z,2.83
2023-03-14T03:33:18.774Z,2.92
2023-03-14T03:35:49.290Z,2.75
2023-03-14T03:38:18.204Z,3.00
2023-03-14T03:40:46.180Z,2.85
2023-03-14T03:43:14.013Z,2.92
2023-03-14T03:45:43.257Z,2.40
2023-03-14T03:48:11.470Z,3.15
2023-03-14T03:50:45.670Z,2.87
2023-03-14T03:53:17.919Z,2.95
2023-03-14T03:55:51.797Z,2.70
2023-03-14T03:58:20.162Z,2.67
2023-03-14T04:00:48.178Z,2.72
2023-03-14T04:03:16.614Z,2.80
2023-03-14T04:05:44.873Z,2.78
2023-03-14T04:08:12.845Z,2.28
2023-03-14T04:10:41.145Z,2.53
2023-03-14T04:13:09.462Z,2.90
2023-03-14T04:15:37.650Z,2.80
2023-03-14T04:18:06.201Z,2.40
2023-03-14T04:20:36.338Z,2.70
2023-03-14T04:23:05.007Z,2.78
2023-03-14T04:25:33.432Z,2.53
2023-03-14T04:28:05.069Z,2.35
2023-03-14T04:30:33.407Z,2.20
2023-03-14T04:33:02.160Z,2.40
2023-03-14T04:35:32.794Z,2.50
2023-03-14T04:38:02.438Z,2.40
2023-03-14T04:40:31.655Z,2.37
2023-03-14T04:43:00.003Z,2.50
2023-03-14T04:45:28.395Z,2.10
2023-03-14T04:47:58.145Z,2.70
2023-03-14T04:50:26.369Z,2.30
2023-03-14T04:52:54.623Z,2.45
2023-03-14T04:55:24.497Z,2.50
2023-03-14T04:57:54.496Z,2.67
2023-03-14T05:00:23.399Z,2.05
2023-03-14T05:02:52.324Z,2.30
2023-03-14T05:05:21.196Z,2.45
2023-03-14T05:07:50.644Z,2.20
2023-03-14T05:10:18.886Z,2.45
2023-03-14T05:12:48.314Z,2.53
2023-03-14T05:15:16.530Z,2.22
2023-03-14T05:17:44.847Z,2.42
2023-03-14T05:20:14.002Z,2.30
2023-03-14T05:22:44.491Z,2.28
2023-03-14T05:25:12.342Z,2.08
2023-03-14T05:27:40.682Z,1.90
2023-03-14T05:30:13.302Z,2.17
2023-03-14T05:32:43.669Z,1.90
2023-03-14T05:35:12.219Z,2.03
2023-03-14T05:37:40.488Z,2.00
2023-03-14T05:40:11.258Z,2.03
2023-03-14T05:42:40.054Z,2.17
2023-03-14T05:45:08.512Z,2.35
2023-03-14T05:47:36.769Z,2.15
2023-03-14T05:50:06.177Z,2.50
2023-03-14T05:52:34.669Z,2.10
2023-03-14T05:55:03.614Z,2.40
2023-03-14T05:57:33.155Z,2.20
2023-03-14T06:00:04.958Z,2.30
2023-03-14T06:02:40.331Z,1.83
2023-03-14T06:05:10.113Z,2.00
2023-03-14T06:07:38.565Z,2.12
2023-03-14T06:10:07.454Z,2.25
2023-03-14T06:12:37.853Z,2.12
2023-03-14T06:15:09.175Z,2.08
2023-03-14T06:17:37.638Z,2.10
2023-03-14T06:20:13.101Z,2.05
2023-03-14T06:22:43.139Z,2.35
2023-03-14T06:25:11.490Z,2.12
2023-03-14T06:27:39.503Z,2.20
2023-03-14T06:30:08.546Z,2.10
2023-03-14T06:32:37.654Z,1.87
2023-03-14T06:35:06.595Z,2.10
2023-03-14T06:37:36.400Z,2.25
2023-03-14T06:40:06.457Z,2.15
2023-03-14T06:42:37.412Z,2.22
2023-03-14T06:45:06.055Z,2.20
2023-03-14T06:47:34.047Z,2.10
2023-03-14T06:50:07.532Z,2.28
2023-03-14T06:52:36.407Z,2.30
2023-03-14T06:55:05.543Z,2.30
2023-03-14T06:57:33.454Z,2.40
2023-03-14T07:00:02.743Z,2.50
2023-03-14T07:02:42.179Z,2.12
2023-03-14T07:05:12.924Z,2.00
2023-03-14T07:07:41.440Z,2.60
2023-03-14T07:10:11.319Z,2.22
2023-03-14T07:12:43.429Z,2.30
2023-03-14T07:15:18.599Z,1.92
2023-03-14T07:17:49.332Z,2.00
2023-03-14T07:22:51.177Z,1.67
2023-03-14T07:25:20.784Z,2.08
2023-03-14T07:27:51.361Z,2.28
2023-03-14T07:30:20.224Z,2.12
2023-03-14T07:32:48.444Z,2.33
2023-03-14T07:35:16.380Z,1.90
2023-03-14T07:37:44.556Z,2.28
2023-03-14T07:40:16.329Z,2.40
2023-03-14T07:42:44.790Z,2.40
2023-03-14T07:45:13.464Z,2.45
2023-03-14T07:47:41.335Z,2.22
2023-03-14T07:50:10.584Z,2.10
2023-03-14T07:52:38.983Z,2.12
2023-03-14T07:55:07.897Z,2.20
2023-03-14T07:57:36.259Z,2.10
2023-03-14T08:00:07.500Z,2.08
2023-03-14T08:02:41.968Z,1.90
2023-03-14T08:05:10.491Z,2.33
2023-03-14T08:07:38.283Z,2.08
2023-03-14T08:10:07.987Z,2.47
2023-03-14T08:12:39.024Z,2.10
2023-03-14T08:15:07.303Z,2.12
2023-03-14T08:17:35.785Z,2.22
2023-03-14T08:20:09.875Z,2.28
2023-03-14T08:22:39.639Z,2.10
2023-03-14T08:25:08.431Z,2.20
2023-03-14T08:27:39.175Z,2.10
2023-03-14T08:32:37.965Z,2.17
2023-03-14T08:35:06.806Z,2.37
2023-03-14T08:37:36.695Z,2.20
2023-03-14T08:40:08.042Z,2.10
2023-03-14T08:42:38.619Z,2.15
2023-03-14T08:45:08.637Z,2.45
2023-03-14T08:47:36.746Z,2.65
2023-03-14T08:50:06.932Z,2.83
2023-03-14T08:52:36.561Z,2.40
2023-03-14T08:55:05.800Z,2.33
2023-03-14T08:57:34.011Z,2.78
2023-03-14T09:00:16.384Z,2.30
2023-03-14T09:02:44.742Z,2.70
2023-03-14T09:05:13.053Z,2.60
2023-03-14T09:07:41.484Z,2.50
2023-03-14T09:10:10.885Z,2.60
2023-03-14T09:12:42.347Z,2.75
2023-03-14T09:15:11.112Z,2.42
2023-03-14T09:17:38.963Z,2.33
2023-03-14T09:20:08.408Z,2.85
2023-03-14T09:22:36.992Z,3.22
2023-03-14T09:25:05.834Z,2.50
2023-03-14T09:27:33.812Z,2.50
2023-03-14T09:30:03.251Z,2.30
2023-03-14T09:32:32.797Z,2.45
2023-03-14T09:35:01.065Z,2.60
2023-03-14T09:37:31.226Z,2.30
2023-03-14T09:39:59.267Z,2.20
2023-03-14T09:42:28.926Z,2.60
2023-03-14T09:45:06.875Z,2.40
2023-03-14T09:47:37.917Z,2.80
2023-03-14T09:50:16.061Z,3.10
2023-03-14T09:52:49.298Z,2.62
2023-03-14T09:55:22.400Z,2.90
2023-03-14T09:57:55.968Z,2.85
2023-03-14T10:00:28.792Z,2.87
2023-03-14T10:03:12.532Z,2.67
2023-03-14T10:05:42.624Z,3.22
2023-03-14T10:08:12.283Z,2.60
2023-03-14T10:10:42.747Z,2.53
2023-03-14T10:13:25.558Z,2.35
2023-03-14T10:15:56.226Z,2.72
2023-03-14T10:21:17.763Z,2.95
2023-03-14T10:23:48.540Z,3.10
2023-03-14T10:26:24.225Z,2.85
2023-03-14T10:28:55.125Z,2.80
2023-03-14T10:31:27.061Z,3.25
2023-03-14T10:34:01.454Z,2.80
2023-03-14T10:36:32.487Z,3.10
2023-03-14T10:39:17.870Z,3.08
2023-03-14T10:41:51.439Z,2.90
2023-03-14T10:44:24.409Z,2.37
2023-03-14T10:47:01.528Z,2.70
2023-03-14T10:49:35.353Z,2.67
2023-03-14T10:52:30.871Z,2.62
2023-03-14T10:55:02.658Z,2.60
2023-03-14T10:57:30.838Z,2.35
2023-03-14T10:59:59.436Z,2.30
2023-03-14T11:02:56.568Z,2.60
2023-03-14T11:05:33.052Z,2.53
2023-03-14T11:08:24.700Z,2.90
2023-03-14T11:10:58.834Z,2.20
2023-03-14T11:13:36.907Z,2.30
2023-03-14T11:16:20.754Z,2.50
2023-03-14T11:19:16.663Z,2.10
2023-03-14T11:21:56.288Z,2.20
2023-03-14T11:24:36.223Z,2.33
2023-03-14T11:27:27.443Z,2.20
2023-03-14T11:30:27.664Z,2.45
2023-03-14T11:33:08.995Z,2.07
2023-03-14T11:36:00.281Z,2.40
2023-03-14T11:38:47.350Z,2.12
2023-03-14T11:41:25.997Z,2.50
2023-03-14T11:44:01.054Z,2.33
2023-03-14T11:46:42.666Z,1.80
2023-03-14T11:49:33.037Z,2.10
2023-03-14T11:52:07.112Z,2.03
2023-03-14T11:54:53.002Z,1.90
2023-03-14T11:57:22.334Z,2.20
2023-03-14T12:00:19.751Z,2.22
2023-03-14T12:03:00.308Z,2.20
2023-03-14T12:06:04.347Z,2.30
2023-03-14T12:08:58.801Z,2.10
2023-03-14T12:11:36.090Z,2.10
2023-03-14T12:14:16.933Z,2.30
2023-03-14T12:16:50.610Z,2.22
2023-03-14T12:19:29.362Z,2.45
2023-03-14T12:22:34.815Z,2.30
2023-03-14T12:25:15.909Z,2.25
2023-03-14T12:27:45.677Z,2.03
2023-03-14T12:30:29.485Z,2.40
2023-03-14T12:33:18.234Z,2.22
2023-03-14T12:35:51.468Z,2.10
2023-03-14T12:38:37.484Z,2.37
2023-03-14T12:41:28.918Z,2.20
2023-03-14T12:43:56.800Z,2.30
2023-03-14T12:46:27.934Z,2.25
2023-03-14T12:49:01.781Z,2.08
2023-03-14T12:51:46.627Z,2.10
2023-03-14T12:54:28.830Z,2.08
2023-03-14T12:57:21.117Z,2.17
2023-03-14T12:59:53.331Z,2.17
2023-03-14T13:02:30.540Z,2.17
2023-03-14T13:05:06.230Z,2.28
2023-03-14T13:08:00.846Z,2.08
2023-03-14T13:10:42.311Z,2.10
2023-03-14T13:13:28.787Z,2.30
2023-03-14T13:16:01.478Z,2.20
2023-03-14T13:18:36.998Z,2.20
2023-03-14T13:21:12.513Z,2.15
2023-03-14T13:23:41.039Z,2.10
2023-03-14T13:26:16.392Z,2.50
2023-03-14T13:28:44.826Z,2.37
2023-03-14T13:31:25.397Z,1.98
2023-03-14T13:34:01.429Z,2.10
2023-03-14T13:36:29.590Z,1.98
2023-03-14T13:39:00.707Z,2.00
2023-03-14T13:41:29.546Z,1.98
2023-03-14T13:44:08.748Z,2.08
2023-03-14T13:46:38.331Z,2.08
2023-03-14T13:49:11.905Z,2.12
2023-03-14T13:51:40.986Z,2.25
2023-03-14T13:54:19.985Z,2.20
2023-03-14T13:56:48.882Z,1.73
2023-03-14T13:59:27.978Z,2.03
2023-03-14T14:01:58.183Z,1.87
2023-03-14T14:04:28.171Z,1.90
2023-03-14T14:07:00.878Z,1.77
2023-03-14T14:09:36.759Z,1.90
2023-03-14T14:12:17.417Z,1.85
2023-03-14T14:15:05.280Z,1.98
2023-03-14T14:18:08.253Z,1.80
2023-03-14T14:20:40.939Z,1.58
2023-03-14T14:23:13.426Z,2.10
2023-03-14T14:25:44.045Z,2.10
2023-03-14T14:28:33.015Z,1.87
2023-03-14T14:31:22.621Z,2.12
2023-03-14T14:34:03.140Z,1.80
2023-03-14T14:36:38.886Z,1.70
2023-03-14T14:39:10.253Z,1.67
2023-03-14T14:41:42.455Z,1.67
2023-03-14T14:46:43.376Z,1.70
2023-03-14T14:49:14.517Z,2.00
2023-03-14T14:51:50.579Z,1.80
2023-03-14T14:54:32.771Z,1.98
2023-03-14T14:57:05.280Z,1.92
2023-03-14T14:59:34.969Z,1.98
2023-03-14T15:02:04.004Z,1.98
2023-03-14T15:04:32.763Z,1.80
2023-03-14T15:07:01.063Z,1.95
2023-03-14T15:09:29.478Z,2.00
2023-03-14T15:11:57.883Z,2.28
2023-03-14T15:14:25.693Z,2.22
2023-03-14T15:16:53.967Z,2.03
2023-03-14T15:19:25.931Z,2.03
2023-03-14T15:21:54.586Z,1.98
2023-03-14T15:24:23.930Z,1.90
2023-03-14T15:26:52.556Z,1.75
2023-03-14T15:29:20.764Z,1.80
2023-03-14T15:31:48.668Z,1.80
2023-03-14T15:34:17.726Z,2.20
2023-03-14T15:36:46.254Z,2.05
2023-03-14T15:39:14.202Z,2.00
2023-03-14T15:41:42.114Z,2.12
2023-03-14T15:44:11.056Z,2.15
2023-03-14T15:46:38.959Z,2.03
2023-03-14T15:49:06.816Z,2.00
2023-03-14T15:51:35.065Z,2.25
2023-03-14T15:54:02.946Z,1.85
2023-03-14T15:56:32.303Z,1.92
2023-03-14T15:59:01.454Z,2.30
2023-03-14T16:01:29.532Z,2.20
2023-03-14T16:03:58.111Z,1.95
2023-03-14T16:06:26.093Z,2.20
2023-03-14T16:08:53.927Z,2.40
2023-03-14T16:11:23.042Z,2.10
2023-03-14T16:13:51.417Z,2.35
2023-03-14T16:16:20.083Z,2.40
2023-03-14T16:18:48.781Z,2.40
2023-03-14T16:21:20.028Z,2.22
2023-03-14T16:23:48.484Z,2.20
2023-03-14T16:26:20.441Z,2.60
2023-03-14T16:28:49.147Z,2.12
2023-03-14T16:31:21.309Z,2.12
2023-03-14T16:33:49.935Z,2.60
2023-03-14T16:36:17.815Z,2.12
2023-03-14T16:38:46.584Z,2.10
2023-03-14T16:41:17.528Z,2.58
2023-03-14T16:43:46.522Z,2.15
2023-03-14T16:46:17.335Z,2.30
2023-03-14T16:48:52.828Z,2.08
2023-03-14T16:51:21.353Z,2.05
2023-03-14T16:53:50.002Z,2.00
2023-03-14T16:56:18.297Z,2.35
2023-03-14T16:58:47.584Z,2.00
2023-03-14T17:01:18.683Z,1.98
2023-03-14T17:03:54.480Z,2.30
2023-03-14T17:06:27.292Z,3.00
2023-03-14T17:08:57.541Z,2.80
2023-03-14T17:11:25.616Z,2.03
2023-03-14T17:13:53.633Z,2.10
2023-03-14T17:16:23.494Z,2.60
2023-03-14T17:18:52.759Z,2.62
2023-03-14T17:21:22.287Z,1.95
2023-03-14T17:23:51.270Z,2.62
2023-03-14T17:26:19.311Z,2.35
2023-03-14T17:28:47.383Z,1.90
2023-03-14T17:31:18.643Z,2.40
2023-03-14T17:33:47.004Z,2.00
2023-03-14T17:36:15.794Z,1.90
2023-03-14T17:38:44.646Z,2.10
2023-03-14T17:41:14.177Z,2.10
2023-03-14T17:43:42.950Z,2.12
2023-03-14T17:46:14.977Z,2.00
2023-03-14T17:48:48.532Z,1.95
2023-03-14T17:51:17.304Z,2.12
2023-03-14T17:53:45.654Z,2.40
2023-03-14T17:56:14.342Z,2.00
2023-03-14T17:58:44.275Z,2.28
2023-03-14T18:01:16.973Z,2.47
2023-03-14T18:03:48.594Z,2.22
2023-03-14T18:08:47.450Z,2.30
2023-03-14T18:11:16.603Z,2.33
2023-03-14T18:13:45.307Z,2.10
2023-03-14T18:16:14.622Z,2.10
2023-03-14T18:18:46.998Z,2.03
2023-03-14T18:21:18.888Z,1.92
2023-03-14T18:23:48.786Z,2.30
2023-03-14T18:26:18.151Z,2.35
2023-03-14T18:28:47.315Z,2.10
2023-03-14T18:31:22.479Z,2.00
2023-03-14T18:33:52.886Z,2.20
2023-03-14T18:36:21.746Z,2.47
2023-03-14T18:38:51.754Z,2.08
2023-03-14T18:41:20.571Z,2.45
2023-03-14T18:43:50.532Z,2.30
2023-03-14T18:46:20.704Z,2.12
2023-03-14T18:48:56.294Z,2.00
2023-03-14T18:51:31.619Z,2.20
2023-03-14T18:54:09.252Z,1.87
2023-03-14T18:56:40.234Z,2.20
2023-03-14T18:59:10.543Z,2.30
2023-03-14T19:01:38.943Z,2.05
2023-03-14T19:04:09.468Z,2.00
2023-03-14T19:06:39.181Z,2.10
2023-03-14T19:09:08.807Z,2.10
2023-03-14T19:11:37.027Z,2.40
2023-03-14T19:14:05.708Z,2.05
2023-03-14T19:16:33.836Z,2.20
2023-03-14T19:19:02.711Z,2.20
2023-03-14T19:21:35.098Z,2.30
2023-03-14T19:24:05.524Z,2.37
2023-03-14T19:26:36.029Z,1.98
2023-03-14T19:29:04.491Z,2.50
2023-03-14T19:31:32.637Z,2.17
2023-03-14T19:34:02.473Z,2.25
2023-03-14T19:36:33.864Z,2.03
2023-03-14T19:39:04.234Z,2.12
2023-03-14T19:41:33.512Z,2.30
2023-03-14T19:44:02.012Z,2.40
2023-03-14T19:46:33.152Z,2.58
2023-03-14T19:49:02.232Z,2.42
2023-03-14T19:51:32.919Z,2.58
2023-03-14T19:54:03.543Z,2.12
2023-03-14T19:56:33.348Z,2.37
2023-03-14T19:59:04.540Z,2.37
2023-03-14T20:01:33.144Z,2.30
2023-03-14T20:04:05.360Z,2.28
2023-03-14T20:06:34.642Z,2.37
2023-03-14T20:09:05.359Z,2.65
2023-03-14T20:11:35.507Z,2.10
2023-03-14T20:14:04.134Z,2.40
2023-03-14T20:16:36.149Z,1.90
2023-03-14T20:19:13.472Z,2.58
2023-03-14T20:21:43.118Z,2.30
2023-03-14T20:24:11.713Z,2.25
2023-03-14T20:26:39.919Z,2.30
2023-03-14T20:29:08.433Z,2.40
2023-03-14T20:31:38.285Z,2.15
2023-03-14T20:34:06.412Z,2.47
2023-03-14T20:36:35.240Z,2.33
2023-03-14T20:39:05.502Z,2.10
2023-03-14T20:41:34.653Z,2.13
2023-03-14T20:44:02.690Z,2.25
2023-03-14T20:46:31.646Z,2.15
2023-03-14T20:49:01.300Z,2.70
2023-03-14T20:51:29.898Z,2.40
2023-03-14T20:53:58.299Z,2.33
2023-03-14T20:56:26.853Z,2.20
2023-03-14T20:58:54.777Z,2.62
2023-03-14T21:01:23.654Z,2.37
2023-03-14T21:03:52.369Z,2.10
2023-03-14T21:06:22.317Z,2.37
2023-03-14T21:08:52.420Z,2.40
2023-03-14T21:11:20.951Z,2.10
2023-03-14T21:13:49.085Z,2.00
2023-03-14T21:16:17.812Z,2.37
2023-03-14T21:18:45.925Z,2.40
2023-03-14T21:21:14.533Z,2.40
2023-03-14T21:23:43.773Z,2.20
2023-03-14T21:26:12.662Z,2.50
2023-03-14T21:28:42.753Z,2.00
2023-03-14T21:31:14.506Z,2.40
2023-03-14T21:33:42.968Z,2.45
2023-03-14T21:36:11.242Z,3.00
2023-03-14T21:38:39.086Z,3.03
2023-03-14T21:41:08.704Z,3.30
2023-03-14T21:43:37.198Z,3.17
2023-03-14T21:46:05.500Z,3.37
2023-03-14T21:48:34.207Z,3.47
2023-03-14T21:51:06.340Z,3.30
2023-03-14T21:53:35.682Z,2.80
2023-03-14T21:56:04.065Z,3.30
2023-03-14T21:58:32.320Z,3.42
2023-03-14T22:01:10.192Z,3.08
2023-03-14T22:03:38.503Z,2.95
2023-03-14T22:06:06.500Z,2.75
2023-03-14T22:08:34.440Z,3.30
2023-03-14T22:11:06.851Z,2.78
2023-03-14T22:13:34.917Z,2.85
2023-03-14T22:16:03.111Z,3.10
2023-03-14T22:18:31.532Z,3.25
2023-03-14T22:20:59.483Z,3.03
2023-03-14T22:23:27.854Z,3.00
2023-03-14T22:25:55.761Z,3.40
2023-03-14T22:28:23.702Z,2.90
2023-03-14T22:30:52.399Z,2.92
2023-03-14T22:33:20.556Z,3.00
2023-03-14T22:35:50.411Z,3.40
2023-03-14T22:38:19.060Z,2.95
2023-03-14T22:40:47.849Z,2.95
2023-03-14T22:43:16.140Z,2.97
2023-03-14T22:45:44.954Z,3.00
2023-03-14T22:48:13.108Z,3.20
2023-03-14T22:50:41.358Z,2.85
2023-03-14T22:53:09.461Z,2.90
2023-03-14T22:55:37.369Z,3.10
2023-03-14T22:58:05.417Z,3.12
2023-03-14T23:00:34.077Z,3.17
2023-03-14T23:03:02.184Z,2.97
2023-03-14T23:05:30.297Z,3.35
2023-03-14T23:07:58.427Z,3.08
2023-03-14T23:10:27.373Z,2.90
2023-03-14T23:12:57.727Z,2.75
2023-03-14T23:15:28.985Z,3.05
2023-03-14T23:17:56.966Z,2.62
2023-03-14T23:20:25.920Z,2.85
2023-03-14T23:22:54.173Z,3.17
2023-03-14T23:25:21.997Z,3.20
2023-03-14T23:27:54.301Z,3.60
2023-03-14T23:30:22.221Z,2.65
2023-03-14T23:32:50.957Z,3.40
2023-03-14T23:35:19.378Z,3.10
2023-03-14T23:37:49.816Z,3.30
2023-03-14T23:40:19.723Z,3.00
2023-03-14T23:42:48.697Z,3.03
2023-03-14T23:45:16.780Z,3.20
2023-03-14T23:47:44.942Z,2.60
2023-03-14T23:50:14.515Z,3.10
2023-03-14T23:52:42.475Z,3.03
2023-03-14T23:55:10.797Z,3.33
2023-03-14T23:57:38.682Z,3.00
